createdAt,value
2022-08-25T00:00:50.296Z,2.67
2022-08-25T00:03:17.584Z,2.42
2022-08-25T00:05:45.488Z,2.10
2022-08-25T00:08:12.193Z,3.03
2022-08-25T00:10:39.363Z,1.63
2022-08-25T00:13:07.617Z,0.98
2022-08-25T00:15:34.763Z,2.05
2022-08-25T00:18:02.060Z,1.92
2022-08-25T00:20:29.924Z,2.50
2022-08-25T00:22:56.635Z,2.28
2022-08-25T00:25:23.590Z,1.33
2022-08-25T00:27:52.448Z,2.25
2022-08-25T00:30:20.578Z,2.00
2022-08-25T00:32:56.806Z,2.83
2022-08-25T00:35:25.969Z,2.53
2022-08-25T00:37:52.722Z,2.05
2022-08-25T00:40:20.243Z,2.42
2022-08-25T00:42:47.083Z,2.90
2022-08-25T00:45:13.737Z,1.50
2022-08-25T00:47:41.887Z,1.88
2022-08-25T00:50:11.176Z,2.13
2022-08-25T00:52:41.659Z,2.35
2022-08-25T00:55:14.614Z,2.33
2022-08-25T00:57:45.701Z,2.25
2022-08-25T01:00:17.547Z,1.58
2022-08-25T01:02:46.079Z,2.53
2022-08-25T01:05:13.169Z,1.75
2022-08-25T01:07:44.638Z,1.77
2022-08-25T01:10:13.420Z,2.42
2022-08-25T01:12:41.209Z,2.75
2022-08-25T01:15:10.418Z,2.40
2022-08-25T01:17:47.571Z,2.60
2022-08-25T01:20:15.278Z,1.63
2022-08-25T01:22:43.317Z,2.40
2022-08-25T01:25:25.779Z,2.72
2022-08-25T01:27:52.740Z,2.40
2022-08-25T01:30:19.800Z,2.83
2022-08-25T01:32:46.471Z,3.25
2022-08-25T01:35:14.170Z,2.25
2022-08-25T01:37:40.834Z,1.85
2022-08-25T01:40:10.352Z,2.80
2022-08-25T01:42:46.875Z,2.17
2022-08-25T01:45:13.958Z,2.65
2022-08-25T01:47:41.081Z,2.55
2022-08-25T01:50:08.264Z,2.08
2022-08-25T01:52:49.827Z,1.83
2022-08-25T01:55:18.418Z,1.98
2022-08-25T01:57:45.234Z,2.65
2022-08-25T02:00:14.631Z,2.10
2022-08-25T02:02:42.769Z,2.63
2022-08-25T02:05:13.996Z,1.90
2022-08-25T02:07:42.470Z,1.90
2022-08-25T02:10:10.631Z,1.60
2022-08-25T02:12:38.997Z,1.30
2022-08-25T02:15:07.495Z,1.73
2022-08-25T02:17:36.660Z,2.00
2022-08-25T02:20:04.513Z,1.75
2022-08-25T02:22:31.182Z,2.47
2022-08-25T02:24:57.810Z,2.03
2022-08-25T02:27:24.571Z,1.45
2022-08-25T02:29:52.700Z,2.15
2022-08-25T02:32:19.428Z,2.58
2022-08-25T02:34:46.134Z,2.65
2022-08-25T02:37:12.868Z,1.95
2022-08-25T02:39:39.826Z,1.90
2022-08-25T02:42:06.854Z,2.30
2022-08-25T02:44:35.458Z,2.45
2022-08-25T02:47:04.011Z,1.50
2022-08-25T02:49:32.237Z,2.03
2022-08-25T02:52:00.820Z,2.08
2022-08-25T02:54:28.643Z,1.90
2022-08-25T02:56:55.503Z,1.58
2022-08-25T02:59:22.204Z,1.30
2022-08-25T03:01:49.086Z,1.40
2022-08-25T03:04:17.873Z,2.25
2022-08-25T03:06:45.362Z,2.13
2022-08-25T03:09:12.771Z,2.00
2022-08-25T03:11:39.767Z,1.75
2022-08-25T03:14:09.718Z,1.80
2022-08-25T03:16:36.637Z,1.85
2022-08-25T03:19:04.387Z,1.73
2022-08-25T03:21:34.231Z,1.63
2022-08-25T03:24:01.063Z,2.10
2022-08-25T03:26:46.455Z,1.98
2022-08-25T03:29:13.859Z,1.77
2022-08-25T03:31:41.047Z,1.90
2022-08-25T03:34:10.377Z,2.08
2022-08-25T03:36:38.450Z,1.73
2022-08-25T03:39:06.177Z,2.08
2022-08-25T03:41:32.883Z,1.10
2022-08-25T03:44:01.018Z,1.10
2022-08-25T03:46:29.838Z,0.98
2022-08-25T03:48:57.617Z,1.48
2022-08-25T03:51:26.298Z,1.70
2022-08-25T03:53:55.449Z,1.40
2022-08-25T03:58:48.869Z,1.60
2022-08-25T04:01:16.686Z,1.77
2022-08-25T04:03:44.958Z,2.97
2022-08-25T04:06:11.996Z,1.20
2022-08-25T04:08:38.881Z,1.65
2022-08-25T04:11:10.229Z,1.30
2022-08-25T04:13:37.454Z,2.03
2022-08-25T04:16:04.570Z,2.33
2022-08-25T04:18:31.217Z,1.80
2022-08-25T04:21:05.567Z,1.65
2022-08-25T04:23:32.253Z,2.45
2022-08-25T04:25:58.942Z,2.05
2022-08-25T04:28:27.348Z,2.50
2022-08-25T04:30:54.257Z,2.42
2022-08-25T04:33:21.140Z,1.80
2022-08-25T04:35:49.127Z,2.45
2022-08-25T04:38:15.872Z,2.70
2022-08-25T04:40:42.543Z,2.38
2022-08-25T04:43:09.284Z,2.13
2022-08-25T04:45:38.432Z,2.28
2022-08-25T04:50:32.042Z,2.25
2022-08-25T04:53:00.274Z,1.27
2022-08-25T04:55:27.097Z,1.45
2022-08-25T04:57:53.740Z,1.30
2022-08-25T05:00:20.469Z,1.40
2022-08-25T05:02:48.635Z,1.70
2022-08-25T05:05:16.198Z,1.73
2022-08-25T05:07:42.845Z,2.05
2022-08-25T05:10:09.705Z,1.52
2022-08-25T05:12:36.370Z,1.73
2022-08-25T05:15:24.029Z,1.60
2022-08-25T05:18:05.498Z,1.70
2022-08-25T05:20:32.207Z,1.90
2022-08-25T05:22:59.237Z,2.15
2022-08-25T05:25:25.928Z,2.83
2022-08-25T05:27:52.622Z,2.75
2022-08-25T05:30:19.386Z,2.67
2022-08-25T05:32:46.065Z,2.05
2022-08-25T05:35:15.575Z,1.70
2022-08-25T05:37:42.549Z,2.30
2022-08-25T05:40:10.375Z,1.52
2022-08-25T05:42:37.355Z,2.90
2022-08-25T05:45:04.168Z,3.45
2022-08-25T05:47:31.034Z,2.53
2022-08-25T05:49:58.126Z,2.70
2022-08-25T05:52:28.266Z,2.65
2022-08-25T05:54:54.987Z,3.03
2022-08-25T05:57:21.676Z,3.20
2022-08-25T05:59:48.545Z,2.53
2022-08-25T06:02:33.654Z,3.90
2022-08-25T06:05:00.329Z,2.10
2022-08-25T06:07:28.633Z,2.47
2022-08-25T06:09:55.317Z,2.75
2022-08-25T06:12:22.243Z,2.40
2022-08-25T06:14:51.625Z,3.42
2022-08-25T06:17:18.294Z,3.42
2022-08-25T06:19:44.917Z,1.95
2022-08-25T06:22:12.529Z,2.63
2022-08-25T06:24:40.888Z,1.70
2022-08-25T06:27:07.586Z,1.35
2022-08-25T06:29:34.519Z,1.70
2022-08-25T06:32:01.205Z,1.85
2022-08-25T06:34:27.953Z,2.72
2022-08-25T06:36:54.646Z,2.58
2022-08-25T06:39:22.797Z,2.45
2022-08-25T06:41:52.829Z,1.75
2022-08-25T06:44:19.546Z,2.92
2022-08-25T06:46:46.408Z,2.20
2022-08-25T06:49:13.301Z,2.47
2022-08-25T06:51:41.789Z,2.22
2022-08-25T06:54:10.249Z,2.17
2022-08-25T06:56:37.808Z,2.10
2022-08-25T06:59:07.658Z,2.30
2022-08-25T07:01:34.988Z,2.20
2022-08-25T07:04:05.726Z,2.45
2022-08-25T07:06:37.786Z,2.90
2022-08-25T07:09:05.900Z,2.83
2022-08-25T07:11:34.367Z,1.73
2022-08-25T07:14:01.968Z,2.33
2022-08-25T07:16:31.504Z,2.33
2022-08-25T07:19:00.121Z,2.70
2022-08-25T07:21:33.164Z,2.50
2022-08-25T07:24:00.967Z,2.17
2022-08-25T07:26:38.972Z,3.08
2022-08-25T07:29:09.622Z,2.13
2022-08-25T07:31:38.253Z,2.63
2022-08-25T07:34:24.289Z,2.13
2022-08-25T07:36:52.524Z,2.40
2022-08-25T07:39:21.877Z,2.55
2022-08-25T07:41:52.408Z,3.20
2022-08-25T07:44:20.871Z,3.22
2022-08-25T07:46:50.178Z,2.55
2022-08-25T07:49:17.320Z,3.38
2022-08-25T07:52:05.482Z,2.72
2022-08-25T07:54:34.137Z,2.42
2022-08-25T07:59:28.385Z,1.83
2022-08-25T08:01:56.411Z,2.80
2022-08-25T08:04:23.077Z,1.75
2022-08-25T08:06:49.980Z,2.28
2022-08-25T08:09:16.745Z,1.60
2022-08-25T08:11:53.696Z,2.80
2022-08-25T08:14:21.165Z,2.63
2022-08-25T08:16:47.981Z,1.63
2022-08-25T08:19:16.425Z,2.15
2022-08-25T08:21:43.856Z,2.53
2022-08-25T08:24:25.053Z,2.17
2022-08-25T08:26:58.949Z,2.88
2022-08-25T08:31:53.538Z,3.38
2022-08-25T08:34:24.736Z,2.50
2022-08-25T08:36:51.695Z,1.65
2022-08-25T08:39:18.497Z,2.08
2022-08-25T08:42:16.841Z,1.83
2022-08-25T08:45:02.631Z,2.30
2022-08-25T08:47:43.405Z,1.67
2022-08-25T08:50:30.780Z,1.98
2022-08-25T08:53:11.337Z,1.80
2022-08-25T08:55:42.717Z,1.92
2022-08-25T08:58:14.894Z,1.90
2022-08-25T09:00:52.371Z,1.55
2022-08-25T09:03:29.491Z,1.77
2022-08-25T09:06:02.653Z,1.92
2022-08-25T09:08:30.972Z,1.95
2022-08-25T09:11:03.228Z,2.03
2022-08-25T09:13:45.511Z,1.42
2022-08-25T09:16:37.623Z,1.70
2022-08-25T09:19:21.085Z,1.83
2022-08-25T09:21:57.816Z,2.00
2022-08-25T09:24:47.113Z,2.03
2022-08-25T09:27:22.826Z,2.55
2022-08-25T09:30:00.217Z,1.67
2022-08-25T09:32:31.173Z,1.60
2022-08-25T09:34:59.465Z,1.50
2022-08-25T09:37:28.316Z,1.60
2022-08-25T09:39:55.145Z,2.05
2022-08-25T09:42:49.819Z,1.95
2022-08-25T09:45:32.349Z,1.85
2022-08-25T09:47:58.962Z,1.85
2022-08-25T09:50:32.275Z,1.88
2022-08-25T09:53:17.002Z,1.95
2022-08-25T09:55:48.441Z,1.77
2022-08-25T09:58:19.739Z,2.10
2022-08-25T10:01:03.181Z,1.77
2022-08-25T10:03:36.670Z,1.73
2022-08-25T10:06:07.699Z,1.95
2022-08-25T10:08:56.826Z,1.88
2022-08-25T10:11:33.725Z,1.70
2022-08-25T10:14:03.026Z,2.17
2022-08-25T10:16:36.147Z,2.25
2022-08-25T10:19:08.307Z,2.30
2022-08-25T10:21:37.436Z,2.00
2022-08-25T10:24:07.621Z,2.10
2022-08-25T10:26:47.733Z,2.35
2022-08-25T10:29:32.538Z,1.92
2022-08-25T10:32:12.164Z,2.15
2022-08-25T10:34:46.302Z,1.95
2022-08-25T10:37:28.584Z,1.95
2022-08-25T10:40:11.171Z,1.80
2022-08-25T10:42:49.588Z,1.75
2022-08-25T10:45:40.199Z,1.88
2022-08-25T10:48:23.814Z,2.33
2022-08-25T10:50:56.757Z,1.95
2022-08-25T10:56:11.701Z,2.03
2022-08-25T10:59:09.253Z,1.63
2022-08-25T11:01:58.811Z,2.20
2022-08-25T11:04:32.098Z,1.80
2022-08-25T11:07:08.673Z,1.90
2022-08-25T11:09:41.035Z,1.92
2022-08-25T11:12:15.616Z,1.98
2022-08-25T11:14:49.796Z,2.00
2022-08-25T11:17:20.452Z,1.52
2022-08-25T11:19:50.320Z,1.95
2022-08-25T11:22:23.066Z,2.08
2022-08-25T11:25:18.703Z,1.75
2022-08-25T11:28:02.165Z,1.85
2022-08-25T11:30:29.045Z,2.10
2022-08-25T11:32:56.611Z,1.75
2022-08-25T11:35:28.383Z,2.13
2022-08-25T11:41:11.211Z,2.17
2022-08-25T11:44:08.127Z,2.10
2022-08-25T11:46:47.160Z,1.55
2022-08-25T11:49:39.430Z,1.75
2022-08-25T11:52:30.616Z,1.45
2022-08-25T11:55:11.570Z,1.70
2022-08-25T11:57:39.087Z,1.50
2022-08-25T12:00:40.995Z,1.52
2022-08-25T12:04:01.883Z,1.30
2022-08-25T12:06:34.012Z,1.67
2022-08-25T12:09:21.640Z,1.33
2022-08-25T12:20:19.395Z,1.40
2022-08-25T12:29:16.838Z,1.88
2022-08-25T12:32:04.906Z,1.60
2022-08-25T12:37:56.287Z,1.13
2022-08-25T12:46:39.446Z,1.98
2022-08-25T12:49:28.770Z,1.90
2022-08-25T13:03:57.269Z,1.45
2022-08-25T13:09:49.282Z,1.45
2022-08-25T13:18:23.101Z,1.65
2022-08-25T13:23:42.602Z,1.25
2022-08-25T13:26:14.298Z,1.20
2022-08-25T13:28:50.232Z,1.60
2022-08-25T13:31:22.192Z,1.35
2022-08-25T13:55:31.036Z,1.08
2022-08-25T14:14:05.271Z,0.82
2022-08-25T14:17:16.385Z,1.98
2022-08-25T14:20:29.740Z,1.20
2022-08-25T14:25:42.425Z,1.40
2022-08-25T14:28:14.665Z,1.08
2022-08-25T14:30:46.239Z,1.35
2022-08-25T14:33:16.697Z,1.42
2022-08-25T14:35:47.496Z,1.08
2022-08-25T14:38:15.196Z,1.25
2022-08-25T14:40:44.667Z,1.10
2022-08-25T14:43:12.187Z,1.10
2022-08-25T14:45:50.200Z,0.90
2022-08-25T14:48:26.697Z,0.88
2022-08-25T14:53:24.031Z,1.00
2022-08-25T14:55:54.212Z,1.33
2022-08-25T14:58:34.058Z,1.27
2022-08-25T15:01:01.978Z,1.00
2022-08-25T15:03:47.595Z,1.20
2022-08-25T15:06:24.673Z,2.47
2022-08-25T15:09:11.731Z,1.55
2022-08-25T15:11:42.037Z,1.48
2022-08-25T15:14:11.089Z,3.08
2022-08-25T15:16:42.476Z,1.30
2022-08-25T15:19:16.933Z,1.60
2022-08-25T15:21:46.412Z,1.30
2022-08-25T15:24:17.733Z,1.35
2022-08-25T15:26:56.728Z,0.85
2022-08-25T15:29:26.341Z,1.13
2022-08-25T15:31:53.533Z,0.98
2022-08-25T15:34:21.912Z,1.02
2022-08-25T15:36:51.252Z,1.42
2022-08-25T15:39:19.679Z,1.25
2022-08-25T15:41:49.239Z,1.25
2022-08-25T15:44:16.835Z,2.65
2022-08-25T15:46:51.844Z,1.55
2022-08-25T15:49:23.545Z,1.27
2022-08-25T15:51:52.690Z,2.80
2022-08-25T15:54:21.804Z,1.67
2022-08-25T15:56:48.657Z,1.33
2022-08-25T15:59:16.505Z,1.13
2022-08-25T16:01:46.578Z,1.52
2022-08-25T16:04:18.332Z,1.30
2022-08-25T16:06:54.279Z,0.90
2022-08-25T16:09:23.636Z,1.42
2022-08-25T16:11:56.752Z,0.93
2022-08-25T16:19:48.336Z,1.95
2022-08-25T16:22:16.507Z,1.52
2022-08-25T16:24:44.997Z,1.58
2022-08-25T16:27:13.055Z,1.45
2022-08-25T16:29:41.166Z,1.27
2022-08-25T16:32:08.740Z,1.10
2022-08-25T16:34:36.176Z,1.27
2022-08-25T16:37:03.300Z,2.85
2022-08-25T16:39:32.652Z,1.25
2022-08-25T16:41:59.422Z,1.30
2022-08-25T16:44:26.283Z,1.15
2022-08-25T16:46:56.561Z,1.05
2022-08-25T16:49:24.484Z,1.55
2022-08-25T16:51:56.698Z,1.48
2022-08-25T16:54:44.445Z,1.52
2022-08-25T16:57:13.625Z,1.17
2022-08-25T16:59:42.426Z,1.23
2022-08-25T17:02:11.060Z,1.02
2022-08-25T17:04:37.901Z,0.90
2022-08-25T17:07:06.610Z,0.95
2022-08-25T17:09:34.695Z,1.45
2022-08-25T17:12:01.706Z,1.02
2022-08-25T17:14:29.784Z,1.48
2022-08-25T17:17:01.462Z,1.30
2022-08-25T17:19:28.292Z,1.27
2022-08-25T17:21:55.197Z,1.30
2022-08-25T17:24:29.566Z,1.35
2022-08-25T17:26:59.094Z,1.08
2022-08-25T17:29:26.654Z,51.13
2022-08-25T17:31:54.823Z,112.20
2022-08-25T17:34:23.193Z,108.00
2022-08-25T17:36:50.890Z,33.00
2022-08-25T17:39:22.306Z,8.20
2022-08-25T17:41:49.953Z,3.30
2022-08-25T17:44:17.246Z,2.15
2022-08-25T17:46:47.339Z,1.60
2022-08-25T17:49:17.055Z,1.48
2022-08-25T17:51:43.938Z,1.77
2022-08-25T17:54:11.960Z,1.38
2022-08-25T17:56:39.328Z,1.20
2022-08-25T17:59:06.936Z,1.67
2022-08-25T18:01:40.532Z,1.45
2022-08-25T18:04:17.408Z,1.15
2022-08-25T18:06:48.624Z,2.38
2022-08-25T18:09:15.468Z,2.60
2022-08-25T18:11:42.612Z,4.05
2022-08-25T18:14:11.292Z,2.33
2022-08-25T18:16:38.845Z,1.63
2022-08-25T18:19:06.468Z,1.00
2022-08-25T18:21:37.319Z,0.80
2022-08-25T18:24:06.352Z,1.30
2022-08-25T18:26:33.620Z,1.83
2022-08-25T18:29:01.549Z,1.58
2022-08-25T18:31:28.531Z,2.03
2022-08-25T18:33:55.380Z,1.02
2022-08-25T18:36:22.440Z,1.45
2022-08-25T18:39:08.120Z,1.30
2022-08-25T18:41:38.478Z,1.45
2022-08-25T18:44:07.435Z,1.85
2022-08-25T18:46:35.017Z,1.83
2022-08-25T18:49:02.907Z,4.85
2022-08-25T18:51:33.151Z,2.47
2022-08-25T18:54:01.129Z,3.40
2022-08-25T18:56:28.354Z,3.50
2022-08-25T18:58:57.192Z,3.13
2022-08-25T19:01:24.432Z,3.08
2022-08-25T19:03:51.431Z,2.50
2022-08-25T19:06:19.442Z,2.47
2022-08-25T19:08:47.802Z,2.53
2022-08-25T19:11:15.965Z,2.45
2022-08-25T19:13:43.258Z,1.83
2022-08-25T19:16:13.844Z,2.20
2022-08-25T19:18:45.433Z,2.03
2022-08-25T19:21:12.471Z,2.13
2022-08-25T19:23:39.233Z,1.88
2022-08-25T19:26:08.286Z,2.65
2022-08-25T19:28:45.587Z,2.20
2022-08-25T19:31:18.238Z,3.03
2022-08-25T19:33:46.029Z,4.30
2022-08-25T19:36:13.870Z,3.35
2022-08-25T19:38:40.640Z,3.03
2022-08-25T19:41:12.974Z,2.58
2022-08-25T19:43:56.622Z,2.72
2022-08-25T19:46:32.705Z,3.33
2022-08-25T19:49:06.952Z,3.47
2022-08-25T19:51:34.596Z,3.05
2022-08-25T19:54:02.827Z,2.70
2022-08-25T19:56:29.990Z,4.43
2022-08-25T19:58:57.429Z,3.65
2022-08-25T20:01:26.094Z,2.53
2022-08-25T20:03:52.792Z,2.67
2022-08-25T20:06:19.857Z,2.60
2022-08-25T20:08:46.628Z,2.28
2022-08-25T20:11:26.271Z,2.97
2022-08-25T20:13:53.322Z,2.50
2022-08-25T20:16:20.674Z,3.08
2022-08-25T20:18:48.826Z,2.38
2022-08-25T20:21:15.480Z,2.53
2022-08-25T20:24:00.590Z,2.50
2022-08-25T20:26:29.181Z,2.75
2022-08-25T20:28:56.043Z,2.95
2022-08-25T20:31:22.849Z,3.63
2022-08-25T20:33:51.618Z,2.65
2022-08-25T20:36:19.373Z,2.80
2022-08-25T20:38:46.323Z,3.60
2022-08-25T20:41:13.540Z,3.50
2022-08-25T20:43:41.340Z,2.78
2022-08-25T20:46:09.138Z,2.00
2022-08-25T20:48:36.127Z,2.90
2022-08-25T20:51:06.575Z,3.28
2022-08-25T20:53:35.239Z,2.17
2022-08-25T20:56:02.359Z,2.13
2022-08-25T20:58:29.268Z,2.35
2022-08-25T21:00:56.508Z,2.22
2022-08-25T21:03:23.359Z,2.63
2022-08-25T21:05:53.548Z,2.50
2022-08-25T21:08:23.828Z,1.98
2022-08-25T21:10:52.158Z,2.95
2022-08-25T21:13:18.778Z,2.55
2022-08-25T21:15:48.553Z,2.80
2022-08-25T21:18:15.369Z,3.13
2022-08-25T21:20:42.984Z,2.58
2022-08-25T21:23:09.646Z,2.30
2022-08-25T21:25:41.435Z,2.55
2022-08-25T21:28:08.499Z,2.85
2022-08-25T21:30:35.241Z,2.78
2022-08-25T21:33:02.390Z,3.15
2022-08-25T21:35:29.104Z,3.25
2022-08-25T21:37:56.076Z,4.57
2022-08-25T21:40:23.058Z,2.63
2022-08-25T21:42:52.002Z,2.45
2022-08-25T21:45:21.654Z,3.53
2022-08-25T21:47:48.758Z,2.83
2022-08-25T21:50:15.504Z,2.40
2022-08-25T21:52:42.428Z,2.17
2022-08-25T21:55:15.833Z,3.53
2022-08-25T21:57:43.129Z,2.58
2022-08-25T22:00:14.841Z,2.10
2022-08-25T22:02:43.938Z,2.95
2022-08-25T22:05:11.477Z,3.03
2022-08-25T22:07:42.091Z,2.20
2022-08-25T22:10:16.725Z,2.05
2022-08-25T22:12:44.655Z,2.22
2022-08-25T22:15:15.544Z,2.35
2022-08-25T22:17:42.393Z,2.55
2022-08-25T22:20:10.626Z,2.95
2022-08-25T22:22:37.388Z,2.78
2022-08-25T22:25:05.458Z,1.98
2022-08-25T22:27:32.892Z,1.95
2022-08-25T22:30:00.738Z,4.00
2022-08-25T22:32:28.721Z,2.45
2022-08-25T22:34:55.349Z,2.85
2022-08-25T22:37:22.284Z,2.25
2022-08-25T22:39:49.391Z,1.88
2022-08-25T22:42:16.294Z,2.17
2022-08-25T22:44:42.962Z,2.00
2022-08-25T22:47:11.894Z,2.10
2022-08-25T22:49:40.493Z,2.05
2022-08-25T22:52:09.275Z,2.67
2022-08-25T22:54:38.391Z,2.47
2022-08-25T22:57:06.794Z,3.08
2022-08-25T22:59:34.162Z,2.30
2022-08-25T23:02:01.043Z,2.28
2022-08-25T23:04:27.768Z,2.53
2022-08-25T23:06:56.149Z,2.40
2022-08-25T23:09:24.935Z,2.92
2022-08-25T23:11:51.667Z,2.10
2022-08-25T23:14:18.711Z,2.60
2022-08-25T23:16:45.590Z,2.42
2022-08-25T23:19:14.275Z,2.50
2022-08-25T23:22:00.112Z,2.33
2022-08-25T23:24:30.727Z,2.45
2022-08-25T23:26:59.176Z,2.83
2022-08-25T23:29:27.764Z,3.25
2022-08-25T23:31:55.577Z,2.35
2022-08-25T23:34:23.138Z,2.40
2022-08-25T23:36:50.456Z,2.03
2022-08-25T23:39:17.182Z,2.40
2022-08-25T23:41:45.241Z,2.83
2022-08-25T23:44:17.221Z,2.60
2022-08-25T23:46:44.678Z,2.22
2022-08-25T23:49:11.604Z,2.80
2022-08-25T23:51:38.631Z,3.33
2022-08-25T23:54:07.091Z,2.58
2022-08-25T23:56:37.150Z,2.80
2022-08-25T23:59:10.744Z,3.63
